sensor_id;sensor_type;location;lat;lon;timestamp;pressure;altitude;pressure_sealevel;temperature;humidity
55733;BME280;41637;52.364;9.910;2023-03-15T00:00:11;100122.02;;;1.26;79.18
55733;BME280;41637;52.364;9.910;2023-03-15T00:02:38;100124.92;;;1.25;79.32
55733;BME280;41637;52.364;9.910;2023-03-15T00:05:05;100123.45;;;1.26;79.34
55733;BME280;41637;52.364;9.910;2023-03-15T00:07:32;100124.30;;;1.27;79.30
55733;BME280;41637;52.364;9.910;2023-03-15T00:09:59;100129.29;;;1.27;79.25
55733;BME280;41637;52.364;9.910;2023-03-15T00:12:26;100130.59;;;1.28;79.47
55733;BME280;41637;52.364;9.910;2023-03-15T00:14:52;100135.84;;;1.28;79.35
55733;BME280;41637;52.364;9.910;2023-03-15T00:17:19;100142.08;;;1.28;79.41
55733;BME280;41637;52.364;9.910;2023-03-15T00:19:48;100143.71;;;1.30;79.16
55733;BME280;41637;52.364;9.910;2023-03-15T00:22:15;100145.73;;;1.31;79.06
55733;BME280;41637;52.364;9.910;2023-03-15T00:24:42;100151.36;;;1.32;78.99
55733;BME280;41637;52.364;9.910;2023-03-15T00:27:10;100151.66;;;1.32;78.69
55733;BME280;41637;52.364;9.910;2023-03-15T00:29:36;100156.80;;;1.35;78.63
55733;BME280;41637;52.364;9.910;2023-03-15T00:32:03;100158.90;;;1.37;78.56
55733;BME280;41637;52.364;9.910;2023-03-15T00:34:31;100157.55;;;1.39;78.69
55733;BME280;41637;52.364;9.910;2023-03-15T00:36:59;100158.13;;;1.40;78.40
55733;BME280;41637;52.364;9.910;2023-03-15T00:39:25;100158.09;;;1.43;77.93
55733;BME280;41637;52.364;9.910;2023-03-15T00:41:52;100163.61;;;1.48;77.70
55733;BME280;41637;52.364;9.910;2023-03-15T00:44:23;100170.23;;;1.50;77.41
55733;BME280;41637;52.364;9.910;2023-03-15T00:46:50;100164.39;;;1.53;77.16
55733;BME280;41637;52.364;9.910;2023-03-15T00:49:16;100173.39;;;1.52;77.54
55733;BME280;41637;52.364;9.910;2023-03-15T00:51:43;100178.67;;;1.49;77.32
55733;BME280;41637;52.364;9.910;2023-03-15T00:54:10;100174.90;;;1.44;77.40
55733;BME280;41637;52.364;9.910;2023-03-15T00:56:41;100184.40;;;1.41;77.44
55733;BME280;41637;52.364;9.910;2023-03-15T00:59:08;100186.04;;;1.40;77.55
55733;BME280;41637;52.364;9.910;2023-03-15T01:01:35;100187.28;;;1.40;77.65
55733;BME280;41637;52.364;9.910;2023-03-15T01:04:04;100194.59;;;1.42;77.33
55733;BME280;41637;52.364;9.910;2023-03-15T01:06:31;100191.11;;;1.46;77.17
55733;BME280;41637;52.364;9.910;2023-03-15T01:08:58;100190.10;;;1.50;76.99
55733;BME280;41637;52.364;9.910;2023-03-15T01:11:26;100190.02;;;1.55;76.93
55733;BME280;41637;52.364;9.910;2023-03-15T01:13:55;100193.92;;;1.58;76.99
55733;BME280;41637;52.364;9.910;2023-03-15T01:16:25;100196.03;;;1.64;76.35
55733;BME280;41637;52.364;9.910;2023-03-15T01:18:52;100198.70;;;1.70;76.54
55733;BME280;41637;52.364;9.910;2023-03-15T01:21:20;100191.54;;;1.72;76.23
55733;BME280;41637;52.364;9.910;2023-03-15T01:23:48;100198.09;;;1.75;76.59
55733;BME280;41637;52.364;9.910;2023-03-15T01:26:16;100195.90;;;1.76;76.37
55733;BME280;41637;52.364;9.910;2023-03-15T01:28:43;100195.11;;;1.77;76.24
55733;BME280;41637;52.364;9.910;2023-03-15T01:33:45;100197.65;;;1.80;76.04
55733;BME280;41637;52.364;9.910;2023-03-15T01:36:15;100199.81;;;1.81;75.91
55733;BME280;41637;52.364;9.910;2023-03-15T01:38:42;100199.14;;;1.83;75.94
55733;BME280;41637;52.364;9.910;2023-03-15T01:41:11;100200.25;;;1.87;75.73
55733;BME280;41637;52.364;9.910;2023-03-15T01:43:38;100206.23;;;1.88;75.60
55733;BME280;41637;52.364;9.910;2023-03-15T01:46:13;100203.52;;;1.91;75.18
55733;BME280;41637;52.364;9.910;2023-03-15T01:51:26;100201.39;;;1.97;74.50
55733;BME280;41637;52.364;9.910;2023-03-15T01:54:15;100202.02;;;2.02;74.94
55733;BME280;41637;52.364;9.910;2023-03-15T01:56:49;100204.70;;;2.06;74.32
55733;BME280;41637;52.364;9.910;2023-03-15T01:59:26;100209.29;;;2.08;74.45
55733;BME280;41637;52.364;9.910;2023-03-15T02:01:58;100214.27;;;2.10;74.06
55733;BME280;41637;52.364;9.910;2023-03-15T02:04:31;100215.52;;;2.12;74.39
55733;BME280;41637;52.364;9.910;2023-03-15T02:07:01;100218.86;;;2.14;74.14
55733;BME280;41637;52.364;9.910;2023-03-15T02:09:45;100219.42;;;2.15;74.34
55733;BME280;41637;52.364;9.910;2023-03-15T02:12:13;100216.95;;;2.16;74.04
55733;BME280;41637;52.364;9.910;2023-03-15T02:14:40;100218.05;;;2.17;74.28
55733;BME280;41637;52.364;9.910;2023-03-15T02:17:07;100213.16;;;2.17;74.19
55733;BME280;41637;52.364;9.910;2023-03-15T02:28:10;100221.86;;;2.28;72.95
55733;BME280;41637;52.364;9.910;2023-03-15T02:30:42;100223.80;;;2.33;72.21
55733;BME280;41637;52.364;9.910;2023-03-15T02:33:17;100227.30;;;2.37;72.09
55733;BME280;41637;52.364;9.910;2023-03-15T02:35:46;100228.46;;;2.41;72.20
55733;BME280;41637;52.364;9.910;2023-03-15T02:38:13;100229.92;;;2.47;71.54
55733;BME280;41637;52.364;9.910;2023-03-15T02:40:40;100233.05;;;2.53;71.46
55733;BME280;41637;52.364;9.910;2023-03-15T02:43:17;100236.81;;;2.58;71.70
55733;BME280;41637;52.364;9.910;2023-03-15T02:45:46;100241.44;;;2.61;72.03
55733;BME280;41637;52.364;9.910;2023-03-15T02:48:13;100243.44;;;2.64;72.18
55733;BME280;41637;52.364;9.910;2023-03-15T02:50:40;100246.30;;;2.68;72.68
55733;BME280;41637;52.364;9.910;2023-03-15T02:53:08;100240.77;;;2.69;72.75
55733;BME280;41637;52.364;9.910;2023-03-15T02:55:35;100245.75;;;2.70;72.82
55733;BME280;41637;52.364;9.910;2023-03-15T02:58:02;100244.77;;;2.67;72.33
55733;BME280;41637;52.364;9.910;2023-03-15T03:00:29;100248.02;;;2.66;72.74
55733;BME280;41637;52.364;9.910;2023-03-15T03:02:56;100250.68;;;2.65;72.69
55733;BME280;41637;52.364;9.910;2023-03-15T03:05:23;100256.65;;;2.65;73.02
55733;BME280;41637;52.364;9.910;2023-03-15T03:07:50;100257.09;;;2.64;73.12
55733;BME280;41637;52.364;9.910;2023-03-15T03:10:18;100255.06;;;2.57;73.67
55733;BME280;41637;52.364;9.910;2023-03-15T03:12:45;100266.67;;;2.52;73.83
55733;BME280;41637;52.364;9.910;2023-03-15T03:15:12;100273.75;;;2.47;73.94
55733;BME280;41637;52.364;9.910;2023-03-15T03:17:39;100275.59;;;2.43;74.28
55733;BME280;41637;52.364;9.910;2023-03-15T03:20:08;100281.30;;;2.38;74.82
55733;BME280;41637;52.364;9.910;2023-03-15T03:22:36;100282.02;;;2.34;75.26
55733;BME280;41637;52.364;9.910;2023-03-15T03:25:04;100283.88;;;2.30;75.55
55733;BME280;41637;52.364;9.910;2023-03-15T03:27:32;100281.83;;;2.28;75.82
55733;BME280;41637;52.364;9.910;2023-03-15T03:30:11;100291.63;;;2.23;76.39
55733;BME280;41637;52.364;9.910;2023-03-15T03:32:39;100302.08;;;2.16;76.70
55733;BME280;41637;52.364;9.910;2023-03-15T03:35:07;100313.86;;;2.10;77.41
55733;BME280;41637;52.364;9.910;2023-03-15T03:37:34;100309.30;;;2.07;77.86
55733;BME280;41637;52.364;9.910;2023-03-15T03:40:01;100310.44;;;2.01;78.33
55733;BME280;41637;52.364;9.910;2023-03-15T03:42:33;100314.40;;;1.95;79.02
55733;BME280;41637;52.364;9.910;2023-03-15T03:45:00;100320.39;;;1.91;79.73
55733;BME280;41637;52.364;9.910;2023-03-15T03:47:27;100321.10;;;1.84;80.91
55733;BME280;41637;52.364;9.910;2023-03-15T03:49:54;100326.78;;;1.81;81.61
55733;BME280;41637;52.364;9.910;2023-03-15T03:52:21;100322.57;;;1.77;82.17
55733;BME280;41637;52.364;9.910;2023-03-15T03:54:47;100325.33;;;1.75;82.68
55733;BME280;41637;52.364;9.910;2023-03-15T03:57:14;100328.61;;;1.73;82.93
55733;BME280;41637;52.364;9.910;2023-03-15T03:59:41;100332.89;;;1.70;83.35
55733;BME280;41637;52.364;9.910;2023-03-15T04:02:08;100329.23;;;1.68;83.70
55733;BME280;41637;52.364;9.910;2023-03-15T04:04:35;100342.28;;;1.64;84.01
55733;BME280;41637;52.364;9.910;2023-03-15T04:07:02;100347.34;;;1.64;84.48
55733;BME280;41637;52.364;9.910;2023-03-15T04:09:28;100349.73;;;1.62;84.78
55733;BME280;41637;52.364;9.910;2023-03-15T04:11:55;100355.02;;;1.59;85.30
55733;BME280;41637;52.364;9.910;2023-03-15T04:14:22;100362.85;;;1.57;85.65
55733;BME280;41637;52.364;9.910;2023-03-15T04:16:50;100370.80;;;1.58;86.10
55733;BME280;41637;52.364;9.910;2023-03-15T04:19:16;100377.17;;;1.59;86.32
55733;BME280;41637;52.364;9.910;2023-03-15T04:21:43;100380.83;;;1.61;86.50
55733;BME280;41637;52.364;9.910;2023-03-15T04:24:13;100377.36;;;1.66;86.92
55733;BME280;41637;52.364;9.910;2023-03-15T04:26:40;100383.73;;;1.69;86.78
55733;BME280;41637;52.364;9.910;2023-03-15T04:29:09;100385.77;;;1.72;87.03
55733;BME280;41637;52.364;9.910;2023-03-15T04:31:36;100391.98;;;1.74;87.14
55733;BME280;41637;52.364;9.910;2023-03-15T04:34:04;100393.56;;;1.78;87.30
55733;BME280;41637;52.364;9.910;2023-03-15T04:36:31;100401.51;;;1.80;87.41
55733;BME280;41637;52.364;9.910;2023-03-15T04:38:59;100395.85;;;1.82;87.46
55733;BME280;41637;52.364;9.910;2023-03-15T04:41:33;100395.38;;;1.84;87.81
55733;BME280;41637;52.364;9.910;2023-03-15T04:44:03;100405.48;;;1.86;87.76
55733;BME280;41637;52.364;9.910;2023-03-15T04:46:31;100402.27;;;1.90;87.61
55733;BME280;41637;52.364;9.910;2023-03-15T04:48:59;100401.02;;;1.90;88.01
55733;BME280;41637;52.364;9.910;2023-03-15T04:51:26;100407.37;;;1.89;88.02
55733;BME280;41637;52.364;9.910;2023-03-15T04:53:53;100407.73;;;1.91;88.38
55733;BME280;41637;52.364;9.910;2023-03-15T04:56:20;100413.70;;;1.90;88.19
55733;BME280;41637;52.364;9.910;2023-03-15T04:58:47;100412.79;;;1.91;88.48
55733;BME280;41637;52.364;9.910;2023-03-15T05:01:14;100419.42;;;1.91;88.61
55733;BME280;41637;52.364;9.910;2023-03-15T05:03:40;100418.65;;;1.94;88.43
55733;BME280;41637;52.364;9.910;2023-03-15T05:06:07;100425.80;;;1.96;88.44
55733;BME280;41637;52.364;9.910;2023-03-15T05:08:34;100427.27;;;1.97;88.30
55733;BME280;41637;52.364;9.910;2023-03-15T05:11:03;100432.61;;;2.00;88.78
55733;BME280;41637;52.364;9.910;2023-03-15T05:13:30;100436.73;;;2.01;88.78
55733;BME280;41637;52.364;9.910;2023-03-15T05:15:57;100442.82;;;2.03;89.00
55733;BME280;41637;52.364;9.910;2023-03-15T05:18:24;100442.36;;;2.02;88.98
55733;BME280;41637;52.364;9.910;2023-03-15T05:20:51;100445.70;;;2.00;89.25
55733;BME280;41637;52.364;9.910;2023-03-15T05:23:23;100453.41;;;2.01;89.44
55733;BME280;41637;52.364;9.910;2023-03-15T05:25:51;100449.77;;;2.01;89.45
55733;BME280;41637;52.364;9.910;2023-03-15T05:28:22;100460.51;;;2.02;89.41
55733;BME280;41637;52.364;9.910;2023-03-15T05:30:50;100463.20;;;2.01;89.57
55733;BME280;41637;52.364;9.910;2023-03-15T05:33:21;100468.02;;;2.02;89.52
55733;BME280;41637;52.364;9.910;2023-03-15T05:35:48;100468.42;;;2.06;89.29
55733;BME280;41637;52.364;9.910;2023-03-15T05:38:15;100475.79;;;2.10;89.24
55733;BME280;41637;52.364;9.910;2023-03-15T05:40:45;100482.75;;;2.12;89.01
55733;BME280;41637;52.364;9.910;2023-03-15T05:43:12;100487.45;;;2.10;89.15
55733;BME280;41637;52.364;9.910;2023-03-15T05:45:45;100489.34;;;2.13;88.94
55733;BME280;41637;52.364;9.910;2023-03-15T05:48:14;100495.00;;;2.18;88.86
55733;BME280;41637;52.364;9.910;2023-03-15T05:50:42;100505.03;;;2.19;88.60
55733;BME280;41637;52.364;9.910;2023-03-15T05:53:10;100508.84;;;2.19;88.29
55733;BME280;41637;52.364;9.910;2023-03-15T05:55:39;100510.61;;;2.19;88.73
55733;BME280;41637;52.364;9.910;2023-03-15T05:58:08;100515.34;;;2.21;88.16
55733;BME280;41637;52.364;9.910;2023-03-15T06:00:35;100523.67;;;2.24;87.90
55733;BME280;41637;52.364;9.910;2023-03-15T06:03:02;100529.27;;;2.23;87.89
55733;BME280;41637;52.364;9.910;2023-03-15T06:05:29;100532.88;;;2.22;87.65
55733;BME280;41637;52.364;9.910;2023-03-15T06:07:56;100540.60;;;2.23;87.31
55733;BME280;41637;52.364;9.910;2023-03-15T06:10:23;100542.88;;;2.26;87.62
55733;BME280;41637;52.364;9.910;2023-03-15T06:12:50;100543.23;;;2.25;87.80
55733;BME280;41637;52.364;9.910;2023-03-15T06:15:18;100549.41;;;2.29;87.68
55733;BME280;41637;52.364;9.910;2023-03-15T06:17:45;100559.31;;;2.32;87.73
55733;BME280;41637;52.364;9.910;2023-03-15T06:20:13;100557.63;;;2.33;87.73
55733;BME280;41637;52.364;9.910;2023-03-15T06:22:40;100566.59;;;2.36;87.55
55733;BME280;41637;52.364;9.910;2023-03-15T06:25:07;100567.05;;;2.35;87.69
55733;BME280;41637;52.364;9.910;2023-03-15T06:27:36;100566.80;;;2.32;87.95
55733;BME280;41637;52.364;9.910;2023-03-15T06:30:04;100568.64;;;2.31;88.12
55733;BME280;41637;52.364;9.910;2023-03-15T06:32:32;100572.10;;;2.27;87.85
55733;BME280;41637;52.364;9.910;2023-03-15T06:34:58;100577.23;;;2.26;88.30
55733;BME280;41637;52.364;9.910;2023-03-15T06:37:25;100581.79;;;2.30;87.83
55733;BME280;41637;52.364;9.910;2023-03-15T06:40:05;100581.20;;;2.33;88.38
55733;BME280;41637;52.364;9.910;2023-03-15T06:42:35;100585.31;;;2.36;88.54
55733;BME280;41637;52.364;9.910;2023-03-15T06:45:02;100592.90;;;2.39;88.46
55733;BME280;41637;52.364;9.910;2023-03-15T06:47:30;100594.43;;;2.40;88.48
55733;BME280;41637;52.364;9.910;2023-03-15T06:49:56;100603.30;;;2.38;88.09
55733;BME280;41637;52.364;9.910;2023-03-15T06:52:24;100610.67;;;2.39;88.41
55733;BME280;41637;52.364;9.910;2023-03-15T06:54:53;100611.05;;;2.39;88.30
55733;BME280;41637;52.364;9.910;2023-03-15T06:57:25;100618.46;;;2.40;88.35
55733;BME280;41637;52.364;9.910;2023-03-15T06:59:52;100626.84;;;2.38;88.45
55733;BME280;41637;52.364;9.910;2023-03-15T07:02:20;100629.07;;;2.41;88.23
55733;BME280;41637;52.364;9.910;2023-03-15T07:04:47;100634.33;;;2.50;88.67
55733;BME280;41637;52.364;9.910;2023-03-15T07:07:16;100637.09;;;2.62;88.63
55733;BME280;41637;52.364;9.910;2023-03-15T07:09:43;100638.70;;;2.71;88.44
55733;BME280;41637;52.364;9.910;2023-03-15T07:12:16;100646.29;;;2.76;88.07
55733;BME280;41637;52.364;9.910;2023-03-15T07:14:42;100643.48;;;2.80;87.60
55733;BME280;41637;52.364;9.910;2023-03-15T07:17:12;100646.72;;;2.84;87.24
55733;BME280;41637;52.364;9.910;2023-03-15T07:19:39;100654.96;;;2.85;87.11
55733;BME280;41637;52.364;9.910;2023-03-15T07:22:22;100659.23;;;2.93;86.69
55733;BME280;41637;52.364;9.910;2023-03-15T07:24:49;100660.13;;;2.99;86.70
55733;BME280;41637;52.364;9.910;2023-03-15T07:27:16;100667.45;;;3.04;86.67
55733;BME280;41637;52.364;9.910;2023-03-15T07:29:44;100669.83;;;3.09;85.74
55733;BME280;41637;52.364;9.910;2023-03-15T07:32:11;100674.54;;;3.09;85.84
55733;BME280;41637;52.364;9.910;2023-03-15T07:34:38;100674.17;;;3.11;85.99
55733;BME280;41637;52.364;9.910;2023-03-15T07:37:05;100682.44;;;3.17;85.73
55733;BME280;41637;52.364;9.910;2023-03-15T07:39:32;100687.64;;;3.23;85.45
55733;BME280;41637;52.364;9.910;2023-03-15T07:41:59;100697.30;;;3.32;85.12
55733;BME280;41637;52.364;9.910;2023-03-15T07:44:26;100694.17;;;3.36;84.91
55733;BME280;41637;52.364;9.910;2023-03-15T07:46:53;100696.95;;;3.38;83.74
55733;BME280;41637;52.364;9.910;2023-03-15T07:49:21;100699.98;;;3.37;83.96
55733;BME280;41637;52.364;9.910;2023-03-15T07:51:48;100706.29;;;3.45;83.80
55733;BME280;41637;52.364;9.910;2023-03-15T07:54:15;100711.68;;;3.48;82.35
55733;BME280;41637;52.364;9.910;2023-03-15T07:56:42;100713.92;;;3.54;82.79
55733;BME280;41637;52.364;9.910;2023-03-15T07:59:09;100721.05;;;3.63;82.55
55733;BME280;41637;52.364;9.910;2023-03-15T08:01:36;100721.69;;;3.68;81.38
55733;BME280;41637;52.364;9.910;2023-03-15T08:04:03;100721.69;;;3.80;81.16
55733;BME280;41637;52.364;9.910;2023-03-15T08:06:30;100726.81;;;3.92;80.29
55733;BME280;41637;52.364;9.910;2023-03-15T08:09:01;100729.36;;;3.97;78.77
55733;BME280;41637;52.364;9.910;2023-03-15T08:11:34;100735.30;;;4.01;78.67
55733;BME280;41637;52.364;9.910;2023-03-15T08:14:02;100724.83;;;4.11;78.29
55733;BME280;41637;52.364;9.910;2023-03-15T08:16:29;100726.15;;;4.27;77.97
55733;BME280;41637;52.364;9.910;2023-03-15T08:18:56;100733.13;;;4.41;76.87
55733;BME280;41637;52.364;9.910;2023-03-15T08:21:23;100733.44;;;4.53;76.37
55733;BME280;41637;52.364;9.910;2023-03-15T08:23:50;100734.08;;;4.60;76.59
55733;BME280;41637;52.364;9.910;2023-03-15T08:26:17;100739.55;;;4.65;75.66
55733;BME280;41637;52.364;9.910;2023-03-15T08:28:44;100745.77;;;4.68;74.70
55733;BME280;41637;52.364;9.910;2023-03-15T08:31:11;100749.46;;;4.60;73.76
55733;BME280;41637;52.364;9.910;2023-03-15T08:33:39;100752.10;;;4.58;74.63
55733;BME280;41637;52.364;9.910;2023-03-15T08:36:06;100757.25;;;4.58;75.03
55733;BME280;41637;52.364;9.910;2023-03-15T08:38:33;100758.31;;;4.58;74.85
55733;BME280;41637;52.364;9.910;2023-03-15T08:41:00;100763.42;;;4.59;75.14
55733;BME280;41637;52.364;9.910;2023-03-15T08:43:27;100764.27;;;4.59;75.19
55733;BME280;41637;52.364;9.910;2023-03-15T08:45:54;100765.77;;;4.60;75.09
55733;BME280;41637;52.364;9.910;2023-03-15T08:48:31;100775.80;;;4.56;74.60
55733;BME280;41637;52.364;9.910;2023-03-15T08:51:04;100772.65;;;4.62;75.72
55733;BME280;41637;52.364;9.910;2023-03-15T08:53:31;100777.35;;;4.74;75.76
55733;BME280;41637;52.364;9.910;2023-03-15T08:55:58;100790.04;;;4.81;74.43
55733;BME280;41637;52.364;9.910;2023-03-15T08:58:25;100792.06;;;4.80;73.60
55733;BME280;41637;52.364;9.910;2023-03-15T09:00:52;100794.91;;;4.85;73.31
55733;BME280;41637;52.364;9.910;2023-03-15T09:03:19;100798.43;;;4.99;73.29
55733;BME280;41637;52.364;9.910;2023-03-15T09:05:48;100800.67;;;5.08;72.13
55733;BME280;41637;52.364;9.910;2023-03-15T09:08:15;100803.45;;;5.16;71.92
55733;BME280;41637;52.364;9.910;2023-03-15T09:10:46;100804.52;;;5.29;72.08
55733;BME280;41637;52.364;9.910;2023-03-15T09:13:13;100806.39;;;5.49;72.61
55733;BME280;41637;52.364;9.910;2023-03-15T09:15:40;100808.02;;;5.72;71.73
55733;BME280;41637;52.364;9.910;2023-03-15T09:18:07;100809.10;;;5.95;71.15
55733;BME280;41637;52.364;9.910;2023-03-15T09:20:33;100812.41;;;6.11;70.43
55733;BME280;41637;52.364;9.910;2023-03-15T09:23:00;100823.73;;;6.15;68.57
55733;BME280;41637;52.364;9.910;2023-03-15T09:25:27;100821.16;;;6.00;68.51
55733;BME280;41637;52.364;9.910;2023-03-15T09:27:54;100825.58;;;5.97;67.94
55733;BME280;41637;52.364;9.910;2023-03-15T09:30:22;100828.92;;;5.97;68.34
55733;BME280;41637;52.364;9.910;2023-03-15T09:32:49;100827.84;;;5.97;67.66
55733;BME280;41637;52.364;9.910;2023-03-15T09:35:18;100831.65;;;5.96;68.25
55733;BME280;41637;52.364;9.910;2023-03-15T09:37:46;100829.52;;;5.86;67.23
55733;BME280;41637;52.364;9.910;2023-03-15T09:40:28;100840.31;;;5.72;67.93
55733;BME280;41637;52.364;9.910;2023-03-15T09:43:01;100843.52;;;5.58;68.94
55733;BME280;41637;52.364;9.910;2023-03-15T09:48:16;100848.46;;;5.28;69.01
55733;BME280;41637;52.364;9.910;2023-03-15T09:53:32;100853.00;;;5.58;68.55
55733;BME280;41637;52.364;9.910;2023-03-15T09:56:02;100849.65;;;5.99;67.84
55733;BME280;41637;52.364;9.910;2023-03-15T09:58:30;100848.56;;;6.30;66.51
55733;BME280;41637;52.364;9.910;2023-03-15T10:01:05;100860.11;;;6.43;63.57
55733;BME280;41637;52.364;9.910;2023-03-15T10:03:48;100861.20;;;6.35;63.01
55733;BME280;41637;52.364;9.910;2023-03-15T10:06:29;100852.74;;;6.26;62.21
55733;BME280;41637;52.364;9.910;2023-03-15T10:09:11;100855.90;;;6.22;62.01
55733;BME280;41637;52.364;9.910;2023-03-15T10:11:55;100851.88;;;6.35;61.13
55733;BME280;41637;52.364;9.910;2023-03-15T10:14:40;100848.75;;;6.61;62.28
55733;BME280;41637;52.364;9.910;2023-03-15T10:17:14;100849.52;;;6.83;61.96
55733;BME280;41637;52.364;9.910;2023-03-15T10:19:49;100854.15;;;6.91;60.45
55733;BME280;41637;52.364;9.910;2023-03-15T10:22:24;100858.10;;;6.81;56.85
55733;BME280;41637;52.364;9.910;2023-03-15T10:25:14;100856.25;;;6.92;58.00
55733;BME280;41637;52.364;9.910;2023-03-15T10:27:49;100851.42;;;7.14;56.31
55733;BME280;41637;52.364;9.910;2023-03-15T10:30:19;100852.80;;;7.13;51.15
55733;BME280;41637;52.364;9.910;2023-03-15T10:33:00;100849.67;;;7.11;50.77
55733;BME280;41637;52.364;9.910;2023-03-15T10:35:28;100850.85;;;7.17;50.28
55733;BME280;41637;52.364;9.910;2023-03-15T10:37:55;100854.77;;;7.23;50.12
55733;BME280;41637;52.364;9.910;2023-03-15T10:40:58;100862.05;;;7.28;49.27
55733;BME280;41637;52.364;9.910;2023-03-15T10:43:30;100854.70;;;7.29;49.72
55733;BME280;41637;52.364;9.910;2023-03-15T10:46:06;100857.05;;;7.27;48.44
55733;BME280;41637;52.364;9.910;2023-03-15T10:48:35;100860.49;;;7.22;49.59
55733;BME280;41637;52.364;9.910;2023-03-15T10:53:58;100863.51;;;7.71;51.40
55733;BME280;41637;52.364;9.910;2023-03-15T10:56:28;100869.98;;;7.96;52.17
55733;BME280;41637;52.364;9.910;2023-03-15T10:58:57;100868.24;;;8.03;50.38
55733;BME280;41637;52.364;9.910;2023-03-15T11:01:38;100868.09;;;7.99;49.07
55733;BME280;41637;52.364;9.910;2023-03-15T11:06:44;100874.56;;;7.69;46.21
55733;BME280;41637;52.364;9.910;2023-03-15T11:09:16;100879.15;;;7.53;45.45
55733;BME280;41637;52.364;9.910;2023-03-15T11:12:05;100874.67;;;7.50;45.43
55733;BME280;41637;52.364;9.910;2023-03-15T11:14:45;100880.80;;;7.63;44.31
55733;BME280;41637;52.364;9.910;2023-03-15T11:17:20;100881.73;;;7.54;44.48
55733;BME280;41637;52.364;9.910;2023-03-15T11:19:56;100878.29;;;7.60;45.81
55733;BME280;41637;52.364;9.910;2023-03-15T11:25:33;100884.16;;;8.02;45.13
55733;BME280;41637;52.364;9.910;2023-03-15T11:28:00;100880.98;;;8.06;46.65
55733;BME280;41637;52.364;9.910;2023-03-15T11:30:30;100887.22;;;8.14;46.31
55733;BME280;41637;52.364;9.910;2023-03-15T11:33:04;100881.34;;;8.11;46.30
55733;BME280;41637;52.364;9.910;2023-03-15T11:35:35;100883.78;;;8.04;46.59
55733;BME280;41637;52.364;9.910;2023-03-15T11:38:12;100888.65;;;7.85;47.81
55733;BME280;41637;52.364;9.910;2023-03-15T11:40:49;100899.30;;;7.56;48.05
55733;BME280;41637;52.364;9.910;2023-03-15T11:43:26;100888.30;;;7.40;49.37
55733;BME280;41637;52.364;9.910;2023-03-15T11:46:09;100895.11;;;7.41;49.94
55733;BME280;41637;52.364;9.910;2023-03-15T11:48:49;100887.73;;;7.64;50.22
55733;BME280;41637;52.364;9.910;2023-03-15T11:51:20;100891.96;;;7.79;46.78
55733;BME280;41637;52.364;9.910;2023-03-15T12:04:42;100895.17;;;8.66;40.97
55733;BME280;41637;52.364;9.910;2023-03-15T12:09:55;100901.58;;;9.33;40.18
55733;BME280;41637;52.364;9.910;2023-03-15T12:17:53;100900.36;;;10.28;40.97
55733;BME280;41637;52.364;9.910;2023-03-15T12:25:36;100904.08;;;11.57;39.08
55733;BME280;41637;52.364;9.910;2023-03-15T12:28:30;100905.91;;;12.06;36.53
55733;BME280;41637;52.364;9.910;2023-03-15T12:31:03;100925.15;;;12.23;33.68
55733;BME280;41637;52.364;9.910;2023-03-15T12:33:43;100916.67;;;11.71;34.87
55733;BME280;41637;52.364;9.910;2023-03-15T12:36:31;100933.47;;;11.10;36.35
55733;BME280;41637;52.364;9.910;2023-03-15T12:41:50;100946.79;;;10.39;36.92
55733;BME280;41637;52.364;9.910;2023-03-15T12:47:04;100976.95;;;8.68;48.37
55733;BME280;41637;52.364;9.910;2023-03-15T12:49:42;100992.03;;;7.67;54.13
55733;BME280;41637;52.364;9.910;2023-03-15T12:54:45;101032.99;;;6.62;61.06
55733;BME280;41637;52.364;9.910;2023-03-15T12:57:22;101031.94;;;6.32;62.79
55733;BME280;41637;52.364;9.910;2023-03-15T13:00:03;101042.38;;;6.01;64.10
55733;BME280;41637;52.364;9.910;2023-03-15T13:02:35;101046.55;;;6.23;64.51
55733;BME280;41637;52.364;9.910;2023-03-15T13:05:20;101047.83;;;7.41;60.61
55733;BME280;41637;52.364;9.910;2023-03-15T13:07:53;101067.77;;;7.88;57.20
55733;BME280;41637;52.364;9.910;2023-03-15T13:10:34;101048.76;;;8.85;54.97
55733;BME280;41637;52.364;9.910;2023-03-15T13:13:09;101058.52;;;8.54;56.59
55733;BME280;41637;52.364;9.910;2023-03-15T13:15:53;101065.39;;;7.56;60.11
55733;BME280;41637;52.364;9.910;2023-03-15T13:18:25;101057.16;;;7.74;61.10
55733;BME280;41637;52.364;9.910;2023-03-15T13:21:14;101063.80;;;8.28;59.30
55733;BME280;41637;52.364;9.910;2023-03-15T13:23:49;101065.37;;;7.69;58.56
55733;BME280;41637;52.364;9.910;2023-03-15T13:26:34;101065.06;;;6.84;59.64
55733;BME280;41637;52.364;9.910;2023-03-15T13:29:26;101069.27;;;6.40;61.36
55733;BME280;41637;52.364;9.910;2023-03-15T13:32:10;101059.33;;;6.18;63.63
55733;BME280;41637;52.364;9.910;2023-03-15T13:34:39;101059.64;;;6.36;63.17
55733;BME280;41637;52.364;9.910;2023-03-15T13:37:20;101053.61;;;7.43;60.68
55733;BME280;41637;52.364;9.910;2023-03-15T13:40:04;101048.16;;;9.22;54.67
55733;BME280;41637;52.364;9.910;2023-03-15T13:42:32;101050.11;;;10.80;49.36
55733;BME280;41637;52.364;9.910;2023-03-15T13:45:14;101055.13;;;12.16;46.58
55733;BME280;41637;52.364;9.910;2023-03-15T13:47:44;101048.54;;;13.71;43.12
55733;BME280;41637;52.364;9.910;2023-03-15T13:50:17;101053.81;;;14.68;39.93
55733;BME280;41637;52.364;9.910;2023-03-15T13:52:47;101043.09;;;15.62;38.20
55733;BME280;41637;52.364;9.910;2023-03-15T13:55:20;101043.38;;;16.43;36.06
55733;BME280;41637;52.364;9.910;2023-03-15T13:57:57;101045.28;;;17.19;34.94
55733;BME280;41637;52.364;9.910;2023-03-15T14:00:26;101048.15;;;17.76;33.51
55733;BME280;41637;52.364;9.910;2023-03-15T14:02:57;101048.10;;;18.17;32.65
55733;BME280;41637;52.364;9.910;2023-03-15T14:05:28;101045.77;;;17.95;31.37
55733;BME280;41637;52.364;9.910;2023-03-15T14:07:59;101041.66;;;18.44;31.59
55733;BME280;41637;52.364;9.910;2023-03-15T14:10:33;101040.62;;;18.78;30.94
55733;BME280;41637;52.364;9.910;2023-03-15T14:13:29;101052.23;;;18.98;30.22
55733;BME280;41637;52.364;9.910;2023-03-15T14:19:13;101053.48;;;19.12;28.96